Time;durP1;ratioP1;P1;durP2;ratioP2;P2;SDS_P1;SDS_P2;PMS_P1;PMS_P2;Temp;Humidity;BMP_temperature;BMP_pressure;BME280_temperature;BME280_humidity;BME280_pressure;Samples;Min_cycle;Max_cycle;Signal;HPM_P1;HPM_P2
2024/02/09 00:00:58;;;;;;;2.47;1.10;;;;;15.90;97827.00;;;;2077247;28;20682;-59
2024/02/09 00:02:02;;;;;;;2.03;0.90;;;;;15.90;97827.00;;;;2078225;28;20232;-60
2024/02/09 00:03:03;;;;;;;2.78;1.13;;;;;15.90;97830.00;;;;2077516;28;20266;-59
2024/02/09 00:04:03;;;;;;;2.75;1.13;;;;;15.90;97830.00;;;;2070362;28;20291;-61
2024/02/09 00:05:05;;;;;;;4.00;1.13;;;;;15.80;97826.00;;;;2064937;28;20267;-60
2024/02/09 00:06:06;;;;;;;3.08;1.00;;;;;15.80;97823.00;;;;2076510;28;20713;-60
2024/02/09 00:07:06;;;;;;;2.77;1.43;;;;;15.80;97821.00;;;;2070388;28;20229;-59
2024/02/09 00:08:06;;;;;;;2.20;0.90;;;;;15.80;97812.00;;;;2078190;28;20241;-59
2024/02/09 00:09:12;;;;;;;2.23;0.83;;;;;15.80;97818.00;;;;2077559;28;20216;-59
2024/02/09 00:10:12;;;;;;;3.20;1.38;;;;;15.80;97821.00;;;;2074973;28;20241;-61
2024/02/09 00:11:13;;;;;;;2.27;1.30;;;;;15.90;97817.00;;;;2075423;28;20210;-59
2024/02/09 00:12:13;;;;;;;2.33;0.70;;;;;15.80;97820.00;;;;2077369;28;20209;-60
2024/02/09 00:13:14;;;;;;;2.37;1.00;;;;;15.80;97810.00;;;;2076720;28;20209;-60
2024/02/09 00:14:15;;;;;;;2.72;1.05;;;;;15.80;97811.00;;;;2067321;28;20245;-60
2024/02/09 00:15:18;;;;;;;2.70;1.33;;;;;15.80;97816.00;;;;2085009;28;20638;-59
2024/02/09 00:16:18;;;;;;;2.58;0.98;;;;;15.80;97813.00;;;;2083139;28;20552;-61
2024/02/09 00:17:18;;;;;;;2.10;0.87;;;;;15.80;97813.00;;;;2077428;28;20287;-59
2024/02/09 00:18:19;;;;;;;3.40;1.10;;;;;15.80;97819.00;;;;2078038;28;20236;-60
2024/02/09 00:19:20;;;;;;;3.67;1.40;;;;;15.80;97810.00;;;;2065275;28;20202;-59
2024/02/09 00:20:20;;;;;;;2.23;1.00;;;;;15.90;97798.00;;;;2076230;28;20456;-59
2024/02/09 00:21:20;;;;;;;2.13;0.83;;;;;15.80;97803.00;;;;2071713;28;20356;-60
2024/02/09 00:22:21;;;;;;;2.30;1.10;;;;;15.80;97801.00;;;;2078045;28;20212;-59
2024/02/09 00:23:21;;;;;;;4.53;1.23;;;;;15.80;97803.00;;;;2077841;28;20217;-59
2024/02/09 00:24:21;;;;;;;2.47;0.90;;;;;15.80;97798.00;;;;2067409;28;20239;-59
2024/02/09 00:25:22;;;;;;;2.10;0.90;;;;;15.80;97801.00;;;;2085457;28;20294;-59
2024/02/09 00:26:22;;;;;;;2.90;1.00;;;;;15.80;97788.00;;;;2080548;28;20220;-60
2024/02/09 00:27:22;;;;;;;2.20;1.07;;;;;15.80;97802.00;;;;2077914;28;20225;-59
2024/02/09 00:28:23;;;;;;;2.30;0.90;;;;;15.80;97799.00;;;;2077213;28;20231;-60
2024/02/09 00:29:23;;;;;;;2.13;1.00;;;;;15.80;97808.00;;;;2068901;28;20222;-60
2024/02/09 00:30:24;;;;;;;3.10;1.73;;;;;15.80;97801.00;;;;2083542;28;20255;-60
2024/02/09 00:31:25;;;;;;;2.05;1.10;;;;;15.50;97794.00;;;;2082617;28;20417;-61
2024/02/09 00:32:25;;;;;;;2.50;1.40;;;;;15.80;97797.00;;;;2073844;28;20248;-60
2024/02/09 00:33:26;;;;;;;2.70;1.00;;;;;15.80;97802.00;;;;2075722;28;20476;-60
2024/02/09 00:34:26;;;;;;;2.27;1.00;;;;;15.80;97794.00;;;;2067837;28;20721;-59
2024/02/09 00:35:27;;;;;;;3.10;1.00;;;;;15.80;97799.00;;;;2084879;28;21108;-59
2024/02/09 00:36:29;;;;;;;3.00;1.20;;;;;15.80;97794.00;;;;2079932;28;20213;-59
2024/02/09 00:37:30;;;;;;;2.67;1.00;;;;;15.80;97792.00;;;;2071928;28;20595;-59
2024/02/09 00:38:32;;;;;;;2.70;1.10;;;;;15.80;97794.00;;;;2077342;28;20217;-60
2024/02/09 00:39:35;;;;;;;3.95;1.45;;;;;15.80;97781.00;;;;2070113;28;20264;-59
2024/02/09 00:40:35;;;;;;;2.45;0.80;;;;;15.90;97787.00;;;;2087106;28;20244;-61
2024/02/09 00:41:36;;;;;;;1.93;1.00;;;;;15.80;97795.00;;;;2082033;28;20218;-60
2024/02/09 00:42:37;;;;;;;2.37;1.10;;;;;15.90;97788.00;;;;2077247;28;20263;-59
2024/02/09 00:43:38;;;;;;;2.00;0.88;;;;;15.80;97789.00;;;;2077912;28;20770;-60
2024/02/09 00:44:38;;;;;;;3.17;1.17;;;;;15.80;97792.00;;;;2067255;28;20225;-60
2024/02/09 00:45:38;;;;;;;1.93;1.10;;;;;15.80;97783.00;;;;2077703;28;20300;-60
2024/02/09 00:46:42;;;;;;;2.30;1.23;;;;;15.80;97781.00;;;;2076544;28;20573;-59
2024/02/09 00:47:43;;;;;;;3.42;1.35;;;;;15.80;97783.00;;;;2077116;28;20254;-60
2024/02/09 00:48:44;;;;;;;2.73;1.03;;;;;15.80;97770.00;;;;2077777;28;20221;-58
2024/02/09 00:49:45;;;;;;;2.50;1.20;;;;;15.80;97780.00;;;;2070565;28;20213;-59
2024/02/09 00:50:45;;;;;;;2.70;1.00;;;;;15.80;97777.00;;;;2082313;28;20467;-60
2024/02/09 00:51:46;;;;;;;2.03;1.00;;;;;15.80;97770.00;;;;2080462;28;20578;-60
2024/02/09 00:52:52;;;;;;;3.93;1.57;;;;;15.80;97774.00;;;;2077687;28;20584;-60
2024/02/09 00:53:53;;;;;;;3.25;1.25;;;;;15.80;97770.00;;;;2077534;28;20652;-59
2024/02/09 00:54:53;;;;;;;2.37;1.00;;;;;15.80;97770.00;;;;2071307;28;20223;-59
2024/02/09 00:55:53;;;;;;;3.30;1.30;;;;;15.80;97769.00;;;;2083175;28;20736;-59
2024/02/09 00:56:54;;;;;;;2.90;1.20;;;;;15.80;97766.00;;;;2083607;28;20792;-59
2024/02/09 00:57:56;;;;;;;3.40;1.17;;;;;15.80;97771.00;;;;2077521;28;20713;-61
2024/02/09 00:58:56;;;;;;;3.20;1.45;;;;;15.80;97757.00;;;;2076606;28;20343;-61
2024/02/09 00:59:58;;;;;;;2.83;1.07;;;;;15.80;97758.00;;;;2061350;28;20214;-60
2024/02/09 01:00:58;;;;;;;2.85;1.00;;;;;15.80;97757.00;;;;2075627;28;20210;-59
2024/02/09 01:01:58;;;;;;;2.40;0.97;;;;;15.80;97766.00;;;;2077035;28;20213;-60
2024/02/09 01:02:59;;;;;;;2.93;1.30;;;;;15.80;97754.00;;;;2073232;28;20224;-59
2024/02/09 01:04:00;;;;;;;3.80;1.23;;;;;15.80;97749.00;;;;2079541;28;20548;-59
2024/02/09 01:05:00;;;;;;;3.30;1.20;;;;;15.80;97757.00;;;;2069588;28;21010;-59
2024/02/09 01:06:00;;;;;;;3.50;1.00;;;;;15.80;97753.00;;;;2074303;28;20226;-59
2024/02/09 01:07:03;;;;;;;2.43;1.30;;;;;15.80;97748.00;;;;2077617;28;20224;-61
2024/02/09 01:08:04;;;;;;;2.67;1.23;;;;;15.80;97748.00;;;;2074011;28;20221;-59
2024/02/09 01:09:07;;;;;;;3.60;1.20;;;;;15.80;97736.00;;;;2077031;28;20276;-61
2024/02/09 01:10:09;;;;;;;2.35;1.00;;;;;15.80;97743.00;;;;2067672;28;20221;-59
2024/02/09 01:11:09;;;;;;;2.10;0.90;;;;;15.80;97756.00;;;;2074548;28;20225;-60
2024/02/09 02:45:13;;;;;;;2.50;1.17;;;;;15.80;97598.00;;;;2067468;28;20237;-60
2024/02/09 02:46:13;;;;;;;3.17;1.00;;;;;15.80;97590.00;;;;2077504;28;20244;-60
2024/02/09 02:47:14;;;;;;;3.07;1.07;;;;;15.80;97587.00;;;;2078055;28;20579;-60
2024/02/09 03:04:19;;;;;;;5.30;1.15;;;;;15.80;97564.00;;;;2077800;28;20213;-60
2024/02/09 03:05:20;;;;;;;2.83;0.82;;;;;15.80;97563.00;;;;2076223;28;20217;-60
2024/02/09 03:06:22;;;;;;;2.95;1.25;;;;;15.80;97563.00;;;;2075200;28;20222;-61
2024/02/09 03:07:23;;;;;;;3.40;0.98;;;;;15.80;97560.00;;;;2078646;28;20228;-59
2024/02/09 03:08:23;;;;;;;2.53;1.20;;;;;15.80;97560.00;;;;2076106;28;20225;-60
2024/02/09 03:09:23;;;;;;;3.70;1.03;;;;;15.80;97557.00;;;;2068811;28;20248;-59
2024/02/09 03:10:24;;;;;;;2.33;0.70;;;;;15.80;97550.00;;;;2077579;28;20565;-59
2024/02/09 03:11:24;;;;;;;2.60;1.33;;;;;15.80;97548.00;;;;2085084;28;20861;-60
2024/02/09 03:12:27;;;;;;;2.27;1.10;;;;;15.80;97549.00;;;;2078746;28;20218;-59
2024/02/09 03:13:28;;;;;;;2.20;0.98;;;;;15.80;97543.00;;;;2077930;28;20604;-59
2024/02/09 03:14:30;;;;;;;2.07;0.93;;;;;15.80;97546.00;;;;2067571;28;20222;-60
2024/02/09 03:15:30;;;;;;;2.63;0.90;;;;;15.80;97547.00;;;;2076643;28;21228;-59
2024/02/09 03:16:31;;;;;;;3.37;1.00;;;;;15.80;97539.00;;;;2077088;28;20217;-59
2024/02/09 03:17:32;;;;;;;2.10;1.10;;;;;15.80;97548.00;;;;2077625;28;20275;-61
2024/02/09 03:18:32;;;;;;;2.50;1.03;;;;;15.80;97541.00;;;;2077833;28;20739;-59
2024/02/09 03:19:35;;;;;;;2.90;0.90;;;;;15.80;97541.00;;;;2067746;28;20226;-61
2024/02/09 03:20:37;;;;;;;2.20;1.02;;;;;15.80;97532.00;;;;2077524;28;20209;-61
2024/02/09 03:21:37;;;;;;;3.47;1.33;;;;;15.80;97538.00;;;;2078601;28;20210;-59
2024/02/09 03:22:37;;;;;;;1.90;0.97;;;;;15.80;97543.00;;;;2076433;28;20237;-59
2024/02/09 03:23:38;;;;;;;2.10;1.20;;;;;15.80;97537.00;;;;2071826;28;20587;-60
2024/02/09 03:24:40;;;;;;;2.20;0.97;;;;;15.80;97535.00;;;;2067773;28;20359;-59
2024/02/09 03:25:40;;;;;;;2.67;1.30;;;;;15.80;97542.00;;;;2077940;28;20206;-60
2024/02/09 03:26:41;;;;;;;2.43;0.90;;;;;15.90;97541.00;;;;2076379;28;20205;-59
2024/02/09 03:27:41;;;;;;;3.10;1.00;;;;;15.80;97535.00;;;;2077275;28;20233;-59
2024/02/09 03:28:43;;;;;;;2.80;1.20;;;;;15.80;97559.00;;;;2078425;28;20236;-59
2024/02/09 03:29:43;;;;;;;3.63;1.10;;;;;15.80;97544.00;;;;2068210;28;20233;-60
2024/02/09 03:30:43;;;;;;;2.47;0.90;;;;;15.80;97538.00;;;;2078156;28;20224;-58
2024/02/09 03:31:44;;;;;;;1.90;1.00;;;;;15.80;97538.00;;;;2077318;28;20249;-59
2024/02/09 03:32:45;;;;;;;2.53;1.03;;;;;15.80;97537.00;;;;2077882;28;20218;-59
2024/02/09 03:33:46;;;;;;;2.90;0.90;;;;;15.80;97531.00;;;;2078243;28;20263;-58
2024/02/09 03:34:47;;;;;;;2.90;0.90;;;;;15.80;97564.00;;;;2067424;28;20645;-59
2024/02/09 03:35:47;;;;;;;2.63;0.98;;;;;15.80;97522.00;;;;2078404;28;20209;-59
2024/02/09 03:36:48;;;;;;;2.60;1.00;;;;;15.80;97530.00;;;;2076386;28;20342;-59
2024/02/09 03:37:48;;;;;;;3.43;1.00;;;;;15.80;97527.00;;;;2078468;28;20218;-59
2024/02/09 03:38:48;;;;;;;2.93;1.17;;;;;15.80;97526.00;;;;2075413;28;20302;-61
2024/02/09 03:39:49;;;;;;;2.00;0.90;;;;;15.40;97527.00;;;;2068506;28;20206;-60
2024/02/09 03:40:51;;;;;;;2.70;0.90;;;;;15.90;97529.00;;;;2073423;28;20216;-60
2024/02/09 03:41:51;;;;;;;3.03;1.15;;;;;15.80;97533.00;;;;2077219;28;20261;-60
2024/02/09 03:42:52;;;;;;;1.97;0.97;;;;;15.90;97521.00;;;;2076118;28;20931;-60
2024/02/09 03:43:52;;;;;;;2.40;1.10;;;;;15.90;97519.00;;;;2077546;28;20217;-61
2024/02/09 03:44:55;;;;;;;2.73;1.07;;;;;15.80;97528.00;;;;2066701;28;20232;-60
2024/02/09 03:45:56;;;;;;;2.75;1.25;;;;;15.90;97524.00;;;;2076221;28;20244;-59
2024/02/09 03:46:58;;;;;;;3.27;1.10;;;;;15.80;97526.00;;;;2076346;28;20221;-59
2024/02/09 03:48:00;;;;;;;3.67;1.10;;;;;15.90;97520.00;;;;2077887;28;20291;-59
2024/02/09 03:49:00;;;;;;;3.35;1.00;;;;;15.80;97517.00;;;;2080691;28;20276;-59
2024/02/09 03:50:01;;;;;;;3.20;1.37;;;;;15.80;97528.00;;;;2068585;28;20698;-58
2024/02/09 03:51:04;;;;;;;2.87;1.03;;;;;15.80;97518.00;;;;2077632;28;20587;-59
2024/02/09 03:52:05;;;;;;;2.40;0.85;;;;;15.80;97526.00;;;;2078064;28;20209;-60
2024/02/09 03:53:06;;;;;;;3.28;0.90;;;;;15.80;97514.00;;;;2079949;28;20256;-60
2024/02/09 03:54:06;;;;;;;2.40;0.90;;;;;15.80;97525.00;;;;2080990;28;20214;-59
2024/02/09 03:55:07;;;;;;;2.50;1.07;;;;;15.80;97512.00;;;;2074347;28;20210;-59
2024/02/09 03:56:08;;;;;;;2.10;1.00;;;;;15.80;97512.00;;;;2084474;28;20367;-60
2024/02/09 03:57:08;;;;;;;3.10;1.20;;;;;15.80;97515.00;;;;2078725;28;20468;-58
2024/02/09 03:58:08;;;;;;;2.90;1.00;;;;;15.90;97520.00;;;;2079696;28;20210;-61
2024/02/09 03:59:09;;;;;;;2.07;0.93;;;;;15.80;97517.00;;;;2081223;28;20225;-60
2024/02/09 04:00:12;;;;;;;2.30;1.07;;;;;15.80;97518.00;;;;2069513;28;20585;-59
2024/02/09 04:01:13;;;;;;;2.85;1.00;;;;;15.90;97512.00;;;;2079899;28;20226;-60
2024/02/09 04:02:14;;;;;;;2.40;1.13;;;;;15.80;97515.00;;;;2076869;28;20978;-60
2024/02/09 04:03:15;;;;;;;4.07;1.03;;;;;15.80;97509.00;;;;2075146;28;20245;-59
2024/02/09 04:04:18;;;;;;;3.10;1.15;;;;;15.90;97519.00;;;;2068229;28;20298;-59
2024/02/09 04:05:18;;;;;;;1.90;0.85;;;;;15.80;97519.00;;;;2077093;28;20709;-60
2024/02/09 04:06:19;;;;;;;2.23;0.93;;;;;15.90;97512.00;;;;2076689;28;20243;-59
2024/02/09 04:07:21;;;;;;;1.93;0.80;;;;;15.80;97520.00;;;;2076256;28;20293;-58
2024/02/09 04:08:21;;;;;;;3.60;1.10;;;;;15.80;97510.00;;;;2077370;28;20224;-59
2024/02/09 04:09:22;;;;;;;1.80;0.90;;;;;15.80;97513.00;;;;2066734;28;20225;-61
2024/02/09 04:10:22;;;;;;;3.20;1.10;;;;;15.80;97560.00;;;;2077720;28;20221;-59
2024/02/09 04:11:23;;;;;;;1.83;0.90;;;;;15.80;97513.00;;;;2077852;28;20729;-61
2024/02/09 04:12:23;;;;;;;1.70;0.83;;;;;15.80;97509.00;;;;2077074;28;20972;-59
2024/02/09 04:13:23;;;;;;;2.93;1.00;;;;;15.80;97518.00;;;;2072493;28;20232;-59
2024/02/09 04:14:23;;;;;;;3.20;1.17;;;;;15.80;97521.00;;;;2067570;28;20225;-59
2024/02/09 04:15:24;;;;;;;2.13;0.87;;;;;15.80;97519.00;;;;2078004;28;20249;-59
2024/02/09 04:16:26;;;;;;;2.87;1.07;;;;;15.80;97520.00;;;;2076242;28;20220;-59
2024/02/09 04:17:27;;;;;;;1.80;1.00;;;;;15.80;97514.00;;;;2077121;28;20464;-60
2024/02/09 04:18:28;;;;;;;3.15;1.00;;;;;15.80;97512.00;;;;2077911;28;20310;-59
2024/02/09 04:19:29;;;;;;;2.43;1.00;;;;;15.80;97519.00;;;;2065858;28;20221;-61
2024/02/09 04:20:30;;;;;;;2.00;0.80;;;;;15.80;97518.00;;;;2078003;28;20468;-59
2024/02/09 04:21:30;;;;;;;2.00;0.87;;;;;15.80;97512.00;;;;2074000;28;20499;-59
2024/02/09 04:22:31;;;;;;;5.33;1.03;;;;;15.80;97509.00;;;;2077865;28;20236;-60
2024/02/09 04:23:31;;;;;;;2.43;1.17;;;;;15.80;97513.00;;;;2077685;28;20308;-59
2024/02/09 04:24:31;;;;;;;2.17;0.80;;;;;15.80;97503.00;;;;2066857;28;20230;-60
2024/02/09 04:25:32;;;;;;;2.73;1.00;;;;;15.80;97504.00;;;;2077955;28;20275;-59
2024/02/09 04:26:32;;;;;;;2.17;1.07;;;;;15.80;97510.00;;;;2075461;28;20253;-58
2024/02/09 04:27:32;;;;;;;2.40;0.83;;;;;15.80;97502.00;;;;2069678;28;20230;-58
2024/02/09 04:28:33;;;;;;;2.13;0.90;;;;;15.80;97496.00;;;;2072380;28;20232;-60
2024/02/09 04:29:33;;;;;;;2.20;0.90;;;;;15.80;97499.00;;;;2067723;28;20264;-60
2024/02/09 04:30:33;;;;;;;3.20;1.23;;;;;15.80;97509.00;;;;2077751;28;20225;-60
2024/02/09 04:31:34;;;;;;;2.07;1.00;;;;;15.80;97497.00;;;;2076897;28;20232;-60
2024/02/09 04:32:35;;;;;;;1.90;0.93;;;;;15.80;97511.00;;;;2068354;28;20273;-59
2024/02/09 04:33:36;;;;;;;2.55;1.17;;;;;15.80;97499.00;;;;2069645;28;20702;-58
2024/02/09 04:34:36;;;;;;;4.82;1.15;;;;;15.80;97498.00;;;;2057075;28;20222;-59
2024/02/09 04:35:37;;;;;;;2.33;0.97;;;;;15.80;97496.00;;;;2078088;28;21042;-59
2024/02/09 04:36:38;;;;;;;2.55;1.10;;;;;15.80;97497.00;;;;2076476;28;20256;-60
2024/02/09 04:37:39;;;;;;;1.98;0.90;;;;;15.80;97495.00;;;;2076369;28;20297;-60
2024/02/09 04:38:40;;;;;;;2.00;1.03;;;;;15.80;97504.00;;;;2070770;28;20210;-59
2024/02/09 04:39:41;;;;;;;3.08;1.15;;;;;15.90;97500.00;;;;2067099;28;20742;-59
2024/02/09 04:40:41;;;;;;;2.17;0.90;;;;;15.90;97502.00;;;;2077225;28;20240;-60
2024/02/09 04:41:43;;;;;;;2.63;1.30;;;;;15.90;97496.00;;;;2076314;28;20630;-60
2024/02/09 04:42:43;;;;;;;2.05;0.77;;;;;15.80;97490.00;;;;2073334;28;20233;-59
2024/02/09 04:43:44;;;;;;;2.10;1.00;;;;;15.80;97482.00;;;;2077785;28;20210;-61
2024/02/09 04:44:44;;;;;;;2.00;0.70;;;;;15.80;97484.00;;;;2065955;28;20340;-61
2024/02/09 04:45:45;;;;;;;1.77;0.80;;;;;15.80;97480.00;;;;2077095;28;20728;-59
2024/02/09 04:46:45;;;;;;;3.03;0.80;;;;;15.80;97483.00;;;;2076216;28;20206;-59
2024/02/09 04:47:46;;;;;;;2.10;0.90;;;;;15.80;97487.00;;;;2075409;28;20766;-59
2024/02/09 04:48:46;;;;;;;2.40;0.90;;;;;15.80;97486.00;;;;2076239;28;20233;-60
2024/02/09 04:49:49;;;;;;;2.70;0.90;;;;;15.90;97483.00;;;;2060172;28;20217;-60
2024/02/09 04:50:49;;;;;;;2.00;0.90;;;;;15.90;97477.00;;;;2077679;28;20214;-60
2024/02/09 04:51:50;;;;;;;3.73;1.27;;;;;15.80;97481.00;;;;2076709;28;20214;-59
2024/02/09 04:52:50;;;;;;;1.87;0.90;;;;;15.90;97473.00;;;;2076279;28;20210;-58
2024/02/09 04:53:51;;;;;;;1.80;0.90;;;;;15.90;97482.00;;;;2077395;28;20340;-60
2024/02/09 04:54:51;;;;;;;3.53;0.90;;;;;15.80;97473.00;;;;2064503;28;20236;-60
2024/02/09 04:55:52;;;;;;;2.10;0.93;;;;;15.90;97466.00;;;;2077598;28;20218;-60
2024/02/09 04:56:53;;;;;;;1.90;0.70;;;;;15.80;97469.00;;;;2073525;28;20242;-59
2024/02/09 04:57:54;;;;;;;3.15;0.90;;;;;15.80;97475.00;;;;2076898;28;20700;-58
2024/02/09 04:58:54;;;;;;;2.27;0.80;;;;;15.90;97473.00;;;;2076258;28;20272;-60
2024/02/09 04:59:54;;;;;;;2.17;0.80;;;;;15.80;97473.00;;;;2067905;28;20230;-59
2024/02/09 05:00:55;;;;;;;2.23;1.30;;;;;15.80;97485.00;;;;2077704;28;20632;-60
2024/02/09 05:01:55;;;;;;;2.50;1.40;;;;;15.80;97470.00;;;;2076539;28;26273;-61
2024/02/09 05:02:55;;;;;;;2.13;1.07;;;;;15.80;97468.00;;;;2077422;28;21070;-60
2024/02/09 05:03:59;;;;;;;3.07;1.20;;;;;15.80;97468.00;;;;2076266;28;20697;-59
2024/02/09 05:04:59;;;;;;;1.92;0.90;;;;;15.80;97465.00;;;;2066053;28;20237;-59
2024/02/09 05:06:00;;;;;;;1.93;1.00;;;;;15.80;97463.00;;;;2074051;28;20232;-58
2024/02/09 05:07:04;;;;;;;2.97;0.90;;;;;15.80;97461.00;;;;2076577;28;20241;-58
2024/02/09 05:08:05;;;;;;;2.53;1.02;;;;;15.80;97460.00;;;;2074192;28;20221;-58
2024/02/09 05:09:09;;;;;;;1.83;0.75;;;;;15.80;97460.00;;;;2080316;28;20213;-58
2024/02/09 05:10:11;;;;;;;2.50;1.00;;;;;15.80;97455.00;;;;2066165;28;20214;-62
2024/02/09 05:11:11;;;;;;;3.90;0.88;;;;;15.90;97471.00;;;;2074569;28;20233;-60
2024/02/09 05:12:11;;;;;;;2.20;0.90;;;;;15.90;97468.00;;;;2077662;28;20764;-60
2024/02/09 05:13:12;;;;;;;1.80;0.90;;;;;15.80;97457.00;;;;2077060;28;20758;-60
2024/02/09 05:14:15;;;;;;;3.13;0.90;;;;;15.80;97462.00;;;;2066800;28;21048;-58
2024/02/09 05:15:17;;;;;;;2.20;0.88;;;;;15.80;97461.00;;;;2075853;28;20229;-59
2024/02/09 05:16:18;;;;;;;2.85;0.88;;;;;15.90;97471.00;;;;2076411;28;20661;-58
2024/02/09 05:17:18;;;;;;;2.53;1.10;;;;;15.80;97464.00;;;;2076842;28;20300;-57
2024/02/09 05:18:19;;;;;;;2.50;0.90;;;;;15.80;97466.00;;;;2070645;28;20224;-58
2024/02/09 05:19:19;;;;;;;2.67;1.07;;;;;15.80;97459.00;;;;2064396;28;20224;-59
2024/02/09 05:20:20;;;;;;;4.30;1.10;;;;;15.80;97456.00;;;;2076921;28;20213;-59
2024/02/09 05:21:20;;;;;;;2.47;0.90;;;;;15.80;97461.00;;;;2077525;28;20216;-59
2024/02/09 05:22:20;;;;;;;3.80;0.97;;;;;15.80;97456.00;;;;2077100;28;20213;-59
2024/02/09 05:23:21;;;;;;;2.00;0.70;;;;;15.90;97449.00;;;;2071656;28;20229;-59
2024/02/09 05:24:23;;;;;;;2.30;0.90;;;;;15.80;97450.00;;;;2064795;28;20217;-58
2024/02/09 05:25:23;;;;;;;1.83;0.82;;;;;15.80;97455.00;;;;2077254;28;20229;-60
2024/02/09 05:26:23;;;;;;;1.90;1.07;;;;;15.80;97454.00;;;;2075289;28;20231;-58
2024/02/09 05:27:24;;;;;;;2.00;0.80;;;;;15.80;97449.00;;;;2076767;28;20228;-59
2024/02/09 05:28:24;;;;;;;2.03;0.70;;;;;15.90;97452.00;;;;2077197;28;20225;-59
2024/02/09 05:29:24;;;;;;;1.97;0.93;;;;;15.80;97468.00;;;;2068219;28;20229;-59
2024/02/09 05:30:29;;;;;;;2.17;0.80;;;;;15.80;97454.00;;;;2085293;28;20271;-58
2024/02/09 05:31:29;;;;;;;1.92;0.90;;;;;15.80;97464.00;;;;2082168;28;20221;-59
2024/02/09 05:32:32;;;;;;;2.43;0.90;;;;;15.80;97457.00;;;;2077149;28;20728;-59
2024/02/09 05:33:34;;;;;;;3.10;1.10;;;;;15.80;97457.00;;;;2075104;28;20271;-59
2024/02/09 05:34:34;;;;;;;2.22;0.70;;;;;15.80;97458.00;;;;2065344;28;20222;-59
2024/02/09 05:35:35;;;;;;;2.67;0.93;;;;;15.80;97461.00;;;;2076271;28;20210;-59
2024/02/09 05:36:36;;;;;;;2.10;0.80;;;;;15.90;97456.00;;;;2075281;28;20217;-59
2024/02/09 05:37:36;;;;;;;2.65;1.20;;;;;15.90;97462.00;;;;2077213;28;20257;-59
2024/02/09 05:38:36;;;;;;;2.03;0.70;;;;;15.80;97463.00;;;;2074196;28;20244;-59
2024/02/09 05:39:37;;;;;;;3.20;0.90;;;;;15.90;97449.00;;;;2066446;28;20333;-60
2024/02/09 05:40:38;;;;;;;1.90;0.70;;;;;15.80;97459.00;;;;2075175;28;20214;-59
2024/02/09 05:41:38;;;;;;;2.20;1.23;;;;;15.80;97458.00;;;;2067879;28;20230;-59
2024/02/09 05:42:39;;;;;;;1.80;0.80;;;;;15.80;97453.00;;;;2076433;28;20236;-59
2024/02/09 05:43:40;;;;;;;1.77;0.70;;;;;15.80;97459.00;;;;2076392;28;20217;-59
2024/02/09 05:44:40;;;;;;;2.03;0.90;;;;;15.90;97460.00;;;;2067214;28;20256;-59
2024/02/09 05:45:40;;;;;;;1.97;0.90;;;;;15.90;97449.00;;;;2074939;28;20599;-58
2024/02/09 05:46:41;;;;;;;1.70;0.60;;;;;15.80;97485.00;;;;2076097;28;20630;-59
2024/02/09 05:47:42;;;;;;;1.73;0.70;;;;;15.80;97454.00;;;;2076526;28;20739;-59
2024/02/09 05:48:43;;;;;;;2.28;0.90;;;;;15.80;97471.00;;;;2075759;28;20217;-58
2024/02/09 05:49:43;;;;;;;2.83;0.85;;;;;15.90;97451.00;;;;2067689;28;20217;-59
2024/02/09 05:50:44;;;;;;;2.67;0.97;;;;;15.80;97456.00;;;;2076258;28;20583;-59
2024/02/09 05:51:44;;;;;;;2.07;0.90;;;;;15.80;97454.00;;;;2076158;28;20709;-60
2024/02/09 05:52:45;;;;;;;3.60;0.80;;;;;15.80;97458.00;;;;2073765;28;20578;-60
2024/02/09 05:53:48;;;;;;;2.67;1.13;;;;;15.80;97471.00;;;;2080415;28;20692;-60
2024/02/09 05:54:48;;;;;;;2.05;0.70;;;;;15.80;97467.00;;;;2067414;28;20308;-59
2024/02/09 05:55:49;;;;;;;3.13;1.00;;;;;15.80;97449.00;;;;2076255;28;20720;-59
2024/02/09 05:56:49;;;;;;;1.80;0.73;;;;;15.80;97447.00;;;;2075986;28;20205;-58
2024/02/09 05:57:54;;;;;;;1.53;0.60;;;;;15.80;97452.00;;;;2076490;28;20271;-59
2024/02/09 05:58:55;;;;;;;2.08;0.73;;;;;15.80;97449.00;;;;2072298;28;20240;-59
2024/02/09 05:59:56;;;;;;;2.00;0.88;;;;;15.90;97447.00;;;;2061225;28;20225;-58
2024/02/09 06:00:56;;;;;;;2.83;1.10;;;;;15.80;97452.00;;;;2076436;28;20284;-58
2024/02/09 06:01:57;;;;;;;2.30;0.80;;;;;15.80;97447.00;;;;2075378;28;20209;-58
2024/02/09 06:02:58;;;;;;;3.15;0.82;;;;;15.80;97449.00;;;;2078363;28;20205;-58
2024/02/09 06:03:58;;;;;;;3.27;1.00;;;;;15.80;97448.00;;;;2071103;28;20230;-60
2024/02/09 06:04:58;;;;;;;2.10;0.97;;;;;15.80;97449.00;;;;2065235;28;20296;-59
2024/02/09 06:06:01;;;;;;;2.13;0.83;;;;;15.80;97443.00;;;;2075811;28;20213;-58
2024/02/09 06:07:01;;;;;;;2.70;0.80;;;;;15.80;97449.00;;;;2076518;28;20764;-60
2024/02/09 06:08:01;;;;;;;1.70;0.70;;;;;15.90;97441.00;;;;2077391;28;20224;-59
2024/02/09 06:09:03;;;;;;;2.43;1.10;;;;;15.80;97441.00;;;;2076630;28;20205;-58
2024/02/09 06:10:03;;;;;;;2.45;0.90;;;;;15.80;97443.00;;;;2062095;28;20209;-59
2024/02/09 06:11:04;;;;;;;1.83;0.80;;;;;15.80;97440.00;;;;2077360;28;20725;-59
2024/02/09 06:12:05;;;;;;;2.80;0.90;;;;;15.90;97438.00;;;;2076544;28;20209;-59
2024/02/09 06:13:05;;;;;;;1.92;0.75;;;;;15.80;97439.00;;;;2077006;28;20480;-58
2024/02/09 06:14:08;;;;;;;2.13;0.87;;;;;15.80;97438.00;;;;2076363;28;20693;-59
2024/02/09 06:15:10;;;;;;;1.92;0.63;;;;;15.80;97440.00;;;;2067296;28;20757;-59
2024/02/09 06:16:14;;;;;;;2.42;0.90;;;;;15.80;97439.00;;;;2075491;28;20777;-59
2024/02/09 06:17:16;;;;;;;3.35;0.90;;;;;15.80;97463.00;;;;2076344;28;20307;-59
2024/02/09 06:18:16;;;;;;;1.90;0.80;;;;;15.80;97434.00;;;;2077280;28;20209;-59
2024/02/09 06:19:16;;;;;;;2.13;0.63;;;;;15.80;97428.00;;;;2065465;28;20642;-61
2024/02/09 06:20:19;;;;;;;1.70;0.77;;;;;15.80;97433.00;;;;2077307;28;20223;-59
2024/02/09 06:21:19;;;;;;;1.77;0.70;;;;;15.90;97427.00;;;;2075040;28;20255;-58
2024/02/09 06:22:20;;;;;;;1.97;0.70;;;;;15.80;97433.00;;;;2073424;28;20213;-59
2024/02/09 06:23:23;;;;;;;2.10;0.80;;;;;15.90;97431.00;;;;2076772;28;20287;-58
2024/02/09 06:24:24;;;;;;;1.63;0.80;;;;;15.80;97435.00;;;;2065955;28;20225;-59
2024/02/09 06:25:25;;;;;;;1.90;0.80;;;;;15.80;97427.00;;;;2076432;28;20225;-59
2024/02/09 06:26:25;;;;;;;2.33;0.60;;;;;15.80;97431.00;;;;2074928;28;20225;-59
2024/02/09 06:27:26;;;;;;;3.30;0.80;;;;;15.80;97435.00;;;;2075185;28;20213;-59
2024/02/09 06:28:27;;;;;;;2.10;0.70;;;;;15.80;97434.00;;;;2075759;28;20217;-58
2024/02/09 06:29:27;;;;;;;3.17;1.07;;;;;15.90;97428.00;;;;2067508;28;20308;-59
2024/02/09 06:30:27;;;;;;;3.40;1.10;;;;;15.80;97421.00;;;;2074587;28;20233;-59
2024/02/09 06:31:28;;;;;;;1.77;0.80;;;;;15.80;97425.00;;;;2078718;28;20260;-59
2024/02/09 06:32:28;;;;;;;1.50;0.60;;;;;15.80;97425.00;;;;2076896;28;20300;-58
2024/02/09 06:33:28;;;;;;;2.77;0.93;;;;;15.80;97426.00;;;;2076446;28;20208;-59
2024/02/09 06:34:29;;;;;;;2.17;0.70;;;;;15.90;97423.00;;;;2067217;28;20206;-59
2024/02/09 06:35:31;;;;;;;2.17;0.80;;;;;15.90;97427.00;;;;2072222;28;20272;-58
2024/02/09 06:36:31;;;;;;;2.90;0.90;;;;;15.90;97434.00;;;;2069558;28;21208;-58
2024/02/09 06:37:32;;;;;;;2.60;0.87;;;;;15.90;97439.00;;;;2074409;28;20249;-59
2024/02/09 06:38:32;;;;;;;2.10;0.90;;;;;15.80;97431.00;;;;2070386;28;20222;-59
2024/02/09 06:39:33;;;;;;;2.53;0.70;;;;;15.80;97428.00;;;;2059305;28;20261;-59
2024/02/09 06:40:34;;;;;;;1.90;0.60;;;;;15.80;97436.00;;;;2069226;28;20226;-58
2024/02/09 06:41:35;;;;;;;1.80;0.70;;;;;15.80;97436.00;;;;2074958;28;20222;-59
2024/02/09 06:42:36;;;;;;;1.50;0.60;;;;;15.80;97435.00;;;;2076356;28;20213;-59
2024/02/09 06:43:37;;;;;;;4.30;0.82;;;;;15.80;97432.00;;;;2076929;28;20736;-59
2024/02/09 06:44:42;;;;;;;2.90;1.13;;;;;15.80;97438.00;;;;2061183;28;20222;-58
2024/02/09 06:45:43;;;;;;;1.92;0.88;;;;;15.80;97436.00;;;;2077078;28;20452;-59
2024/02/09 06:46:43;;;;;;;2.23;0.73;;;;;15.80;97440.00;;;;2075071;28;20221;-59
2024/02/09 06:47:43;;;;;;;1.47;0.60;;;;;15.80;97429.00;;;;2075876;28;20324;-59
2024/02/09 06:48:46;;;;;;;2.07;0.80;;;;;15.90;97443.00;;;;2069393;28;20214;-59
2024/02/09 06:49:47;;;;;;;2.25;0.85;;;;;15.90;97434.00;;;;2071277;28;20216;-58
2024/02/09 06:50:48;;;;;;;2.73;0.90;;;;;15.80;97438.00;;;;2074802;28;20210;-59
2024/02/09 06:51:48;;;;;;;2.43;0.87;;;;;15.80;97439.00;;;;2069248;28;20781;-59
2024/02/09 06:52:48;;;;;;;2.23;0.90;;;;;15.80;97433.00;;;;2073410;28;20586;-58
2024/02/09 06:53:49;;;;;;;2.73;0.70;;;;;15.90;97431.00;;;;2076889;28;20209;-59
2024/02/09 06:54:49;;;;;;;1.90;0.80;;;;;15.80;97435.00;;;;2071164;28;20220;-59